Time;durP1;ratioP1;P1;durP2;ratioP2;P2;SDS_P1;SDS_P2;PMS_P1;PMS_P2;Temp;Humidity;BMP_temperature;BMP_pressure;BME280_temperature;BME280_humidity;BME280_pressure;Samples;Min_cycle;Max_cycle;Signal;HPM_P1;HPM_P2
2022/01/21 00:01:29;;;;;;;9.78;5.92;;;;;;;-2.70;77.29;96369.03;1689225;85;20984;-79
2022/01/21 00:03:55;;;;;;;12.37;6.70;;;;;;;-2.73;77.91;96373.87;1689312;85;21076;-80
2022/01/21 00:06:21;;;;;;;12.43;6.42;;;;;;;-2.78;78.14;96370.80;1689100;85;21158;-80
2022/01/21 00:08:47;;;;;;;8.93;6.12;;;;;;;-2.77;78.12;96369.06;1688837;85;21023;-80
2022/01/21 00:11:14;;;;;;;11.50;6.50;;;;;;;-2.78;78.44;96364.44;1689369;85;21371;-80
2022/01/21 00:13:40;;;;;;;17.35;8.43;;;;;;;-2.79;78.76;96368.35;1689181;85;20988;-80
2022/01/21 00:16:12;;;;;;;12.85;7.08;;;;;;;-2.80;78.69;96366.27;1689353;85;20995;-80
2022/01/21 00:18:39;;;;;;;17.12;9.23;;;;;;;-2.78;78.57;96367.44;1688714;85;21024;-80
2022/01/21 00:32:04;;;;;;;12.55;7.50;;;;;;;-2.61;79.00;96360.78;1717136;83;21098;-80
2022/01/21 00:34:30;;;;;;;18.50;11.05;;;;;;;-2.60;78.94;96364.17;1716864;83;20990;-80
2022/01/21 00:36:56;;;;;;;19.02;10.30;;;;;;;-2.54;79.09;96372.20;1717165;83;21005;-80
2022/01/21 00:39:25;;;;;;;14.03;7.05;;;;;;;-2.53;79.04;96373.01;1717439;83;21322;-80
2022/01/21 00:42:15;;;;;;;17.57;8.45;;;;;;;-2.52;79.12;96375.91;1717038;83;21011;-80
2022/01/21 00:44:20;;;;;;;14.28;7.37;;;;;;;-2.51;79.16;96391.53;1714127;83;21002;-80
2022/01/21 00:46:46;;;;;;;15.83;7.60;;;;;;;-2.50;79.24;96399.52;1717601;83;21348;-80
2022/01/21 00:49:12;;;;;;;12.55;7.33;;;;;;;-2.56;79.84;96393.11;1717411;83;20995;-79
2022/01/21 00:51:37;;;;;;;15.05;7.00;;;;;;;-2.63;79.62;96388.52;1717415;83;21017;-80
2022/01/21 00:54:03;;;;;;;11.20;6.70;;;;;;;-2.69;79.51;96390.20;1717253;83;21465;-80
2022/01/21 00:56:29;;;;;;;11.43;7.85;;;;;;;-2.69;79.74;96395.28;1717621;83;21057;-80
2022/01/21 00:58:54;;;;;;;16.40;8.50;;;;;;;-2.73;79.79;96404.84;1717325;83;21002;-80
2022/01/21 01:01:20;;;;;;;11.90;7.28;;;;;;;-2.76;79.80;96408.87;1717536;83;20966;-80
2022/01/21 01:03:46;;;;;;;14.58;6.80;;;;;;;-2.76;80.00;96416.50;1717372;83;21329;-80
2022/01/21 01:06:12;;;;;;;13.18;7.20;;;;;;;-2.77;79.94;96420.77;1717278;83;21098;-79
2022/01/21 01:08:37;;;;;;;12.03;6.70;;;;;;;-2.79;80.06;96422.57;1717694;83;20931;-79
2022/01/21 01:21:31;;;;;;;15.18;8.10;;;;;;;-2.88;80.04;96435.08;1717518;83;21994;-80
2022/01/21 01:29:21;;;;;;;14.50;7.55;;;;;;;-2.90;80.08;96436.91;1695082;82;21361;-80
2022/01/21 01:31:46;;;;;;;18.30;8.78;;;;;;;-2.90;80.35;96444.08;1693462;84;21010;-80
2022/01/21 01:34:13;;;;;;;16.37;9.15;;;;;;;-2.90;80.26;96444.53;1681507;85;20957;-79
2022/01/21 01:36:41;;;;;;;22.15;9.13;;;;;;;-2.88;80.38;96448.60;1681159;85;21037;-79
2022/01/21 01:41:39;;;;;;;12.85;7.42;;;;;;;-2.90;80.06;96450.89;1681462;85;21448;-79
2022/01/21 01:49:38;;;;;;;14.40;6.95;;;;;;;-2.96;80.05;96449.53;1681459;85;21010;-80
2022/01/21 01:52:11;;;;;;;14.28;6.78;;;;;;;-2.98;79.65;96458.98;1681628;85;21030;-79
2022/01/21 01:54:42;;;;;;;9.93;6.58;;;;;;;-3.00;79.53;96448.56;1681132;85;20989;-80
2022/01/21 01:57:08;;;;;;;7.60;6.05;;;;;;;-3.02;79.32;96455.83;1681608;85;21376;-80
2022/01/21 01:59:34;;;;;;;13.98;8.13;;;;;;;-3.04;79.03;96446.22;1681500;85;20950;-79
2022/01/21 02:02:04;;;;;;;12.35;7.83;;;;;;;-3.05;79.09;96439.50;1681534;85;20950;-80
2022/01/21 02:04:30;;;;;;;8.98;7.60;;;;;;;-3.02;79.42;96442.30;1681390;85;21396;-79
2022/01/21 02:06:55;;;;;;;11.73;7.28;;;;;;;-2.98;79.55;96460.26;1681659;85;21049;-79
2022/01/21 02:09:22;;;;;;;12.55;7.37;;;;;;;-2.94;79.85;96463.41;1681323;85;20962;-80
2022/01/21 02:11:48;;;;;;;12.95;6.83;;;;;;;-2.97;79.52;96463.16;1681446;85;21013;-80
2022/01/21 02:14:21;;;;;;;15.13;6.92;;;;;;;-2.98;79.43;96469.61;1681428;85;21021;-80
2022/01/21 02:22:17;;;;;;;6.70;4.83;;;;;;;-2.98;78.71;96486.14;1681559;85;20978;-80
2022/01/21 02:24:54;;;;;;;9.53;5.78;;;;;;;-3.01;78.57;96490.97;1681489;85;20994;-79
2022/01/21 02:27:17;;;;;;;10.50;5.15;;;;;;;-3.04;78.53;96497.06;1686001;85;21009;-80
2022/01/21 02:29:47;;;;;;;8.58;6.20;;;;;;;-3.06;78.48;96490.44;1710019;82;21001;-80
2022/01/21 02:32:10;;;;;;;9.63;6.10;;;;;;;-3.10;78.43;96493.61;1697230;83;21033;-80
2022/01/21 02:34:36;;;;;;;10.25;4.70;;;;;;;-3.08;78.75;96496.08;1686781;84;21029;-80
2022/01/21 02:37:03;;;;;;;8.88;4.87;;;;;;;-3.11;78.77;96499.60;1681608;85;21412;-80
2022/01/21 02:39:28;;;;;;;6.08;4.30;;;;;;;-3.17;78.73;96500.45;1681688;85;20922;-80
2022/01/21 02:41:55;;;;;;;5.53;4.75;;;;;;;-3.20;78.96;96502.73;1681711;85;20993;-80
2022/01/21 02:44:22;;;;;;;7.78;4.65;;;;;;;-3.21;79.00;96503.64;1681460;85;21066;-80
2022/01/21 02:46:48;;;;;;;9.48;4.60;;;;;;;-3.22;78.87;96505.01;1681703;85;20998;-80
2022/01/21 02:49:14;;;;;;;7.20;4.25;;;;;;;-3.26;78.69;96518.34;1681827;85;21033;-79
2022/01/21 02:51:40;;;;;;;8.35;4.80;;;;;;;-3.27;78.57;96519.70;1681743;85;21028;-80
2022/01/21 02:54:06;;;;;;;5.50;3.75;;;;;;;-3.27;78.32;96532.41;1662234;85;20969;-80
2022/01/21 02:56:35;;;;;;;7.70;4.83;;;;;;;-3.33;78.20;96528.52;1681684;85;21340;-80
2022/01/21 02:59:01;;;;;;;5.47;4.53;;;;;;;-3.39;78.19;96527.64;1681835;85;21052;-80
2022/01/21 03:01:26;;;;;;;8.53;5.12;;;;;;;-3.43;77.98;96532.52;1681742;85;21344;-80
2022/01/21 03:03:53;;;;;;;6.15;4.10;;;;;;;-3.45;78.02;96527.98;1681736;85;21011;-79
2022/01/21 03:06:21;;;;;;;7.97;5.12;;;;;;;-3.45;78.15;96542.77;1681766;85;20994;-79
2022/01/21 03:08:48;;;;;;;9.60;5.35;;;;;;;-3.50;78.25;96552.86;1681984;85;20942;-80
2022/01/21 03:11:14;;;;;;;7.67;5.53;;;;;;;-3.52;78.73;96555.95;1681754;85;21373;-80
2022/01/21 03:13:41;;;;;;;8.95;5.37;;;;;;;-3.52;78.91;96550.41;1681728;85;20986;-80
2022/01/21 03:16:06;;;;;;;8.45;4.20;;;;;;;-3.51;79.07;96550.77;1681660;85;21437;-80
2022/01/21 03:18:32;;;;;;;6.62;4.80;;;;;;;-3.51;79.15;96549.95;1681814;85;21080;-79
2022/01/21 03:20:58;;;;;;;5.28;4.47;;;;;;;-3.51;79.50;96553.77;1681710;85;21037;-80
2022/01/21 03:23:26;;;;;;;8.00;4.75;;;;;;;-3.56;79.37;96551.96;1681726;85;21386;-80
2022/01/21 03:25:51;;;;;;;5.40;4.05;;;;;;;-3.63;79.45;96557.39;1681634;85;21029;-80
2022/01/21 03:28:17;;;;;;;5.15;4.60;;;;;;;-3.66;79.62;96566.46;1684151;83;21442;-80
2022/01/21 03:30:43;;;;;;;4.92;4.28;;;;;;;-3.68;79.50;96570.81;1677777;83;21067;-79
2022/01/21 03:33:08;;;;;;;5.60;4.62;;;;;;;-3.65;79.60;96573.63;1648424;86;21008;-80
2022/01/21 03:35:34;;;;;;;5.95;4.80;;;;;;;-3.66;79.59;96572.81;1669346;86;20956;-80
2022/01/21 03:38:00;;;;;;;9.28;5.47;;;;;;;-3.64;79.94;96576.07;1668882;86;21031;-79
2022/01/21 03:40:26;;;;;;;9.15;6.55;;;;;;;-3.63;80.01;96582.78;1669359;85;20999;-79
2022/01/21 03:42:51;;;;;;;8.88;5.20;;;;;;;-3.64;79.80;96584.96;1669322;86;20996;-80
2022/01/21 03:45:18;;;;;;;6.28;4.90;;;;;;;-3.63;79.83;96589.13;1669098;86;21055;-80
2022/01/21 03:47:44;;;;;;;9.23;5.50;;;;;;;-3.63;79.83;96591.67;1669274;85;20999;-80
2022/01/21 03:52:45;;;;;;;7.12;5.08;;;;;;;-3.71;79.49;96589.23;1669399;86;21450;-80
2022/01/21 03:55:11;;;;;;;7.90;4.92;;;;;;;-3.71;79.41;96585.42;1669444;85;21103;-80
2022/01/21 03:57:36;;;;;;;8.43;5.65;;;;;;;-3.69;79.51;96589.50;1669019;86;21107;-80
2022/01/21 04:00:08;;;;;;;11.68;5.47;;;;;;;-3.68;79.26;96592.41;1669151;85;20999;-80
2022/01/21 04:02:34;;;;;;;7.70;5.05;;;;;;;-3.69;79.29;96584.42;1669395;86;21358;-80
2022/01/21 04:05:01;;;;;;;8.78;4.50;;;;;;;-3.70;79.02;96597.21;1669355;86;20983;-80
2022/01/21 04:07:26;;;;;;;7.65;4.70;;;;;;;-3.73;79.10;96601.20;1669231;86;21111;-80
2022/01/21 04:09:52;;;;;;;7.58;4.58;;;;;;;-3.75;79.27;96597.91;1669351;85;21079;-79
2022/01/21 04:12:18;;;;;;;8.70;4.55;;;;;;;-3.80;79.41;96603.27;1669475;85;21040;-80
2022/01/21 04:14:43;;;;;;;5.53;4.42;;;;;;;-3.82;79.56;96597.46;1669247;86;21044;-80
2022/01/21 04:17:09;;;;;;;8.13;5.92;;;;;;;-3.88;79.71;96594.02;1669289;85;21410;-79
2022/01/21 04:19:35;;;;;;;8.10;4.47;;;;;;;-3.90;79.97;96590.75;1669371;85;21048;-80
2022/01/21 04:22:00;;;;;;;8.08;4.70;;;;;;;-3.88;80.22;96596.55;1669257;86;21044;-79
2022/01/21 04:24:26;;;;;;;9.85;5.83;;;;;;;-3.88;80.33;96604.17;1669259;86;21051;-80
2022/01/21 04:26:52;;;;;;;7.65;4.30;;;;;;;-3.85;80.46;96602.72;1673249;85;21408;-79
2022/01/21 04:29:18;;;;;;;7.78;5.58;;;;;;;-3.87;80.45;96599.91;1673271;84;21043;-80
2022/01/21 04:31:43;;;;;;;12.13;6.03;;;;;;;-3.84;80.48;96604.80;1697770;83;20938;-80
2022/01/21 04:34:09;;;;;;;8.20;5.05;;;;;;;-3.86;80.29;96604.08;1717649;83;20942;-80
2022/01/21 04:36:36;;;;;;;8.63;4.60;;;;;;;-3.85;80.27;96607.80;1717481;83;21037;-80
2022/01/21 04:39:04;;;;;;;11.73;5.25;;;;;;;-3.82;80.18;96603.80;1717491;83;21305;-80
2022/01/21 04:49:39;;;;;;;10.78;5.85;;;;;;;-3.77;79.84;96619.59;1716690;83;21073;-80
2022/01/21 04:52:06;;;;;;;10.30;6.10;;;;;;;-3.83;79.67;96613.59;1691844;83;20991;-80
2022/01/21 04:54:33;;;;;;;11.88;6.20;;;;;;;-3.84;79.78;96610.70;1717065;83;20978;-80
2022/01/21 04:57:01;;;;;;;8.68;5.65;;;;;;;-3.81;79.97;96616.86;1716522;83;20990;-80
2022/01/21 04:59:26;;;;;;;11.12;5.78;;;;;;;-3.79;79.95;96626.48;1716893;83;20954;-80
2022/01/21 05:01:53;;;;;;;9.08;5.60;;;;;;;-3.81;79.80;96628.29;1717432;83;20946;-80
2022/01/21 05:04:19;;;;;;;10.23;5.80;;;;;;;-3.82;79.47;96635.55;1717356;83;21330;-80
2022/01/21 05:06:47;;;;;;;8.75;5.85;;;;;;;-3.84;79.07;96638.63;1717339;83;21049;-80
2022/01/21 05:09:16;;;;;;;8.20;4.87;;;;;;;-3.87;78.61;96646.42;1717451;83;21331;-80
2022/01/21 05:11:41;;;;;;;10.78;5.20;;;;;;;-3.88;78.46;96642.25;1717348;82;20971;-80
2022/01/21 05:14:39;;;;;;;5.28;4.20;;;;;;;-3.90;78.07;96644.52;1717195;83;21361;-80
2022/01/21 05:17:01;;;;;;;8.28;4.75;;;;;;;-3.93;77.19;96642.94;1712014;83;21030;-80
2022/01/21 05:19:19;;;;;;;10.28;6.08;;;;;;;-4.01;77.16;96643.39;1716216;83;21389;-80
2022/01/21 05:21:48;;;;;;;9.98;5.62;;;;;;;-3.98;77.48;96651.28;1717716;83;20962;-80
2022/01/21 05:24:14;;;;;;;6.72;4.58;;;;;;;-3.95;77.55;96646.84;1716976;83;20978;-80
2022/01/21 05:26:41;;;;;;;7.42;4.50;;;;;;;-3.95;77.18;96648.11;1717493;83;20959;-80
2022/01/21 05:29:10;;;;;;;5.80;4.12;;;;;;;-3.95;77.42;96647.29;1710033;84;21062;-80
2022/01/21 05:31:36;;;;;;;6.75;4.60;;;;;;;-3.95;77.44;96655.72;1710064;83;21073;-80
2022/01/21 05:34:02;;;;;;;7.12;4.83;;;;;;;-3.91;77.22;96644.94;1709796;83;21027;-80
2022/01/21 05:36:28;;;;;;;7.30;4.72;;;;;;;-3.93;77.01;96656.45;1709872;84;21077;-80
2022/01/21 05:38:58;;;;;;;8.00;4.70;;;;;;;-3.93;76.96;96650.11;1709713;84;20989;-80
2022/01/21 05:41:24;;;;;;;10.03;5.05;;;;;;;-3.92;76.74;96648.37;1709779;84;20947;-80
2022/01/21 05:43:58;;;;;;;8.08;6.08;;;;;;;-3.97;76.63;96641.48;1709732;84;20974;-81
2022/01/21 05:47:18;;;;;;;8.20;5.15;;;;;;;-4.01;76.77;96656.53;1708600;84;21031;-80
2022/01/21 05:48:54;;;;;;;6.42;5.08;;;;;;;-4.02;77.03;96647.28;1682685;84;20982;-80
2022/01/21 05:51:20;;;;;;;7.87;5.33;;;;;;;-3.98;77.03;96646.20;1709897;83;21322;-80
2022/01/21 05:53:46;;;;;;;11.55;6.00;;;;;;;-3.97;76.87;96651.64;1709772;84;20943;-80
2022/01/21 05:56:12;;;;;;;10.15;5.15;;;;;;;-3.93;76.93;96650.11;1709856;84;20995;-80
2022/01/21 05:58:38;;;;;;;9.35;5.37;;;;;;;-3.93;76.76;96648.02;1704643;82;20987;-80
2022/01/21 06:01:04;;;;;;;8.08;5.75;;;;;;;-3.93;76.72;96653.91;1673319;84;21377;-80
2022/01/21 06:03:34;;;;;;;10.58;5.70;;;;;;;-3.85;77.03;96653.95;1693505;84;21070;-80
2022/01/21 06:06:00;;;;;;;11.78;6.22;;;;;;;-3.83;76.71;96654.22;1709900;84;21045;-80
2022/01/21 06:08:26;;;;;;;13.83;6.53;;;;;;;-3.83;76.55;96658.03;1709970;83;21138;-80
2022/01/21 06:10:52;;;;;;;9.20;5.35;;;;;;;-3.83;76.61;96654.67;1709827;84;20978;-80
2022/01/21 06:13:19;;;;;;;8.55;5.70;;;;;;;-3.83;76.43;96651.69;1710079;83;21394;-80
2022/01/21 06:15:47;;;;;;;12.90;5.70;;;;;;;-3.83;76.30;96654.22;1709922;84;21018;-80
2022/01/21 06:18:13;;;;;;;9.43;5.83;;;;;;;-3.81;76.59;96657.48;1710043;84;20986;-80
2022/01/21 06:20:38;;;;;;;8.05;5.72;;;;;;;-3.80;76.29;96659.58;1709983;84;21050;-80
2022/01/21 06:23:04;;;;;;;12.58;6.62;;;;;;;-3.81;76.44;96661.30;1710054;83;20979;-80
2022/01/21 06:25:30;;;;;;;12.13;6.42;;;;;;;-3.81;76.43;96661.75;1710003;84;21082;-80
2022/01/21 06:27:56;;;;;;;9.05;5.58;;;;;;;-3.82;76.51;96666.02;1704580;84;21092;-80
2022/01/21 06:30:22;;;;;;;12.88;6.45;;;;;;;-3.82;76.43;96667.73;1697310;83;21438;-80
2022/01/21 06:32:47;;;;;;;9.28;6.42;;;;;;;-3.85;76.67;96661.56;1697359;83;20987;-80
2022/01/21 06:35:13;;;;;;;16.77;11.93;;;;;;;-3.88;76.67;96669.36;1675424;84;20987;-80
2022/01/21 06:37:39;;;;;;;9.40;6.40;;;;;;;-3.90;76.83;96671.98;1697287;84;21442;-80
2022/01/21 06:40:06;;;;;;;11.55;6.50;;;;;;;-3.89;76.45;96669.00;1697260;83;21003;-80
2022/01/21 06:42:32;;;;;;;9.10;6.00;;;;;;;-3.91;76.73;96681.75;1697173;84;21092;-80
2022/01/21 06:45:01;;;;;;;12.60;6.85;;;;;;;-3.88;77.02;96675.25;1696993;83;21039;-80
2022/01/21 06:47:28;;;;;;;10.28;6.72;;;;;;;-3.88;77.00;96674.44;1697324;83;21359;-80
2022/01/21 06:49:54;;;;;;;15.53;7.65;;;;;;;-3.83;77.16;96681.34;1697019;84;21026;-80
2022/01/21 06:52:21;;;;;;;10.25;5.50;;;;;;;-3.82;77.09;96680.42;1697387;84;20976;-80
2022/01/21 06:54:47;;;;;;;13.62;6.15;;;;;;;-3.84;77.11;96677.98;1697179;84;21298;-80
2022/01/21 06:57:15;;;;;;;11.05;5.08;;;;;;;-3.80;77.34;96678.16;1697310;84;21035;-80
2022/01/21 06:59:40;;;;;;;10.25;6.03;;;;;;;-3.79;77.24;96678.53;1697229;84;21406;-80
2022/01/21 07:02:06;;;;;;;12.85;7.25;;;;;;;-3.77;77.19;96673.36;1697265;83;20991;-80
2022/01/21 07:04:33;;;;;;;11.30;7.17;;;;;;;-3.75;77.39;96679.98;1697247;83;20995;-80
2022/01/21 07:07:02;;;;;;;8.88;5.40;;;;;;;-3.74;77.38;96684.64;1702870;83;21023;-80
2022/01/21 07:09:28;;;;;;;9.53;5.95;;;;;;;-3.76;77.37;96687.23;1696455;83;21091;-80
2022/01/21 07:11:55;;;;;;;10.13;5.90;;;;;;;-3.75;77.49;96696.48;1697054;83;21031;-80
2022/01/21 07:14:21;;;;;;;11.15;6.95;;;;;;;-3.74;77.51;96693.53;1697260;83;20944;-80
2022/01/21 07:16:47;;;;;;;7.87;5.42;;;;;;;-3.71;77.70;96699.24;1697273;84;21354;-80
2022/01/21 07:19:13;;;;;;;7.60;5.47;;;;;;;-3.72;77.72;96696.34;1697279;83;21011;-80
2022/01/21 07:21:40;;;;;;;10.75;5.60;;;;;;;-3.73;77.67;96702.33;1697283;84;21390;-80
2022/01/21 07:24:06;;;;;;;10.80;6.12;;;;;;;-3.73;77.77;96700.23;1697336;84;21074;-80
2022/01/21 07:26:32;;;;;;;7.58;5.72;;;;;;;-3.72;77.91;96693.80;1697239;84;22082;-80
2022/01/21 07:28:57;;;;;;;9.25;5.78;;;;;;;-3.68;78.10;96693.17;1691303;83;21004;-80
2022/01/21 07:31:23;;;;;;;11.28;5.53;;;;;;;-3.67;77.92;96696.07;1689164;85;21028;-80
2022/01/21 07:33:49;;;;;;;11.50;5.97;;;;;;;-3.64;78.09;96695.89;1689219;85;21007;-80
2022/01/21 07:36:14;;;;;;;9.53;6.05;;;;;;;-3.62;78.18;96693.63;1689241;85;21415;-80
2022/01/21 07:38:41;;;;;;;9.28;6.70;;;;;;;-3.60;78.16;96701.61;1689040;85;21023;-81
2022/01/21 07:41:07;;;;;;;12.23;7.30;;;;;;;-3.59;78.13;96709.59;1689330;85;21088;-80
2022/01/21 07:43:33;;;;;;;12.37;6.87;;;;;;;-3.59;78.23;96715.48;1689216;85;20972;-80
2022/01/21 07:45:59;;;;;;;8.50;6.83;;;;;;;-3.56;78.39;96704.36;1688883;85;21066;-80
2022/01/21 07:48:25;;;;;;;24.30;12.82;;;;;;;-3.57;78.30;96707.81;1689249;85;21055;-80
2022/01/21 07:50:50;;;;;;;73.57;27.10;;;;;;;-3.55;78.44;96704.73;1690148;84;21019;-80
2022/01/21 07:53:16;;;;;;;169.57;58.87;;;;;;;-3.56;78.37;96699.28;1689208;85;20961;-80
2022/01/21 07:55:44;;;;;;;39.98;18.30;;;;;;;-3.58;78.41;96703.19;1688949;85;21319;-80
2022/01/21 07:58:10;;;;;;;21.62;9.08;;;;;;;-3.55;78.58;96703.45;1689088;85;21013;-80
2022/01/21 08:00:35;;;;;;;18.60;10.10;;;;;;;-3.53;78.54;96708.81;1688578;85;21371;-80
2022/01/21 08:03:02;;;;;;;128.00;35.20;;;;;;;-3.52;78.42;96709.17;1688499;85;20980;-80
2022/01/21 08:05:31;;;;;;;23.32;9.53;;;;;;;-3.51;78.46;96703.19;1688401;85;21036;-80
2022/01/21 08:07:56;;;;;;;38.38;13.22;;;;;;;-3.50;78.62;96708.63;1688643;85;21079;-80
2022/01/21 08:10:21;;;;;;;104.20;36.45;;;;;;;-3.45;78.69;96707.09;1684605;83;21023;-80
2022/01/21 08:12:47;;;;;;;13.60;8.50;;;;;;;-3.39;78.86;96706.30;1689006;84;21036;-80
2022/01/21 08:15:13;;;;;;;29.45;13.68;;;;;;;-3.37;78.76;96706.21;1688651;85;21023;-80
2022/01/21 08:17:38;;;;;;;19.77;10.82;;;;;;;-3.33;78.72;96707.66;1689004;85;21031;-80
2022/01/21 08:20:05;;;;;;;20.90;10.53;;;;;;;-3.35;78.67;96714.56;1688620;85;21478;-80
2022/01/21 08:22:31;;;;;;;22.67;10.53;;;;;;;-3.39;78.62;96711.38;1688453;85;21052;-80
2022/01/21 08:24:57;;;;;;;66.72;27.02;;;;;;;-3.38;78.79;96717.28;1688767;85;21449;-80
2022/01/21 08:27:24;;;;;;;16.87;7.95;;;;;;;-3.39;78.77;96713.11;1688403;85;21012;-80
2022/01/21 08:29:50;;;;;;;20.60;9.68;;;;;;;-3.43;78.56;96716.70;1688901;85;21398;-80
2022/01/21 08:32:17;;;;;;;21.40;10.85;;;;;;;-3.45;78.74;96715.98;1688581;85;21428;-80
2022/01/21 08:34:42;;;;;;;17.42;10.32;;;;;;;-3.47;78.70;96721.16;1688755;85;20957;-80
2022/01/21 08:37:08;;;;;;;16.73;9.63;;;;;;;-3.47;78.78;96725.41;1688707;85;21099;-80
2022/01/21 08:39:34;;;;;;;24.50;11.38;;;;;;;-3.47;78.70;96728.77;1688760;85;21012;-80
2022/01/21 08:42:00;;;;;;;62.53;15.78;;;;;;;-3.49;78.63;96733.13;1688883;85;20980;-80
2022/01/21 08:44:25;;;;;;;21.75;8.15;;;;;;;-3.54;78.49;96736.84;1688793;85;21008;-80
2022/01/21 08:46:51;;;;;;;27.27;10.43;;;;;;;-3.57;78.49;96730.22;1688976;85;21004;-80
2022/01/21 08:49:19;;;;;;;105.58;38.65;;;;;;;-3.52;78.68;96732.03;1688872;85;21434;-80
2022/01/21 08:51:51;;;;;;;154.87;45.52;;;;;;;-3.43;78.92;96731.95;1688573;85;21011;-80
2022/01/21 08:54:15;;;;;;;46.45;15.32;;;;;;;-3.33;78.76;96745.78;1688468;85;21403;-80
2022/01/21 08:56:42;;;;;;;52.00;17.32;;;;;;;-3.34;78.41;96742.42;1688798;85;21020;-80
2022/01/21 08:59:08;;;;;;;33.35;13.10;;;;;;;-3.33;78.39;96743.23;1688535;85;21402;-79
2022/01/21 09:01:34;;;;;;;276.45;98.90;;;;;;;-3.28;78.32;96745.05;1688408;85;21051;-80
2022/01/21 09:03:59;;;;;;;24.72;12.78;;;;;;;-3.23;78.29;96746.90;1688406;85;21015;-80
2022/01/21 09:06:28;;;;;;;79.05;21.60;;;;;;;-3.16;78.37;96743.53;1669018;85;21007;-80
2022/01/21 09:08:53;;;;;;;89.75;24.23;;;;;;;-3.11;78.33;96746.62;1684540;83;21034;-80
2022/01/21 09:11:18;;;;;;;84.87;29.32;;;;;;;-3.06;78.06;96744.20;1670081;85;20984;-80
2022/01/21 09:13:44;;;;;;;49.03;19.82;;;;;;;-3.02;77.90;96743.10;1688645;85;20992;-80
2022/01/21 09:16:11;;;;;;;95.30;29.45;;;;;;;-3.00;77.94;96748.09;1688301;85;21051;-80
2022/01/21 09:18:51;;;;;;;54.45;21.75;;;;;;;-2.95;77.94;96754.98;1688627;85;21000;-80
2022/01/21 09:21:19;;;;;;;42.65;13.25;;;;;;;-2.88;78.05;96750.38;1687488;85;21024;-80
2022/01/21 09:23:49;;;;;;;71.80;28.47;;;;;;;-2.89;77.73;96753.83;1687266;85;21001;-80
2022/01/21 09:26:17;;;;;;;16.97;7.72;;;;;;;-2.88;77.93;96764.37;1685059;84;21012;-80
2022/01/21 09:28:43;;;;;;;99.75;28.80;;;;;;;-2.85;77.95;96764.18;1698510;83;21063;-80
2022/01/21 09:31:09;;;;;;;19.25;9.50;;;;;;;-2.75;78.21;96760.20;1688262;84;21015;-80
2022/01/21 09:33:35;;;;;;;31.27;11.53;;;;;;;-2.74;77.91;96751.66;1688770;85;20988;-80
2022/01/21 09:36:01;;;;;;;12.15;8.78;;;;;;;-2.73;77.91;96755.38;1688928;85;21371;-80
2022/01/21 09:38:27;;;;;;;70.83;28.45;;;;;;;-2.68;77.84;96748.73;1688970;85;21055;-80
2022/01/21 09:40:53;;;;;;;27.40;11.45;;;;;;;-2.65;77.91;96752.37;1688761;85;21066;-80
2022/01/21 09:43:19;;;;;;;59.40;20.05;;;;;;;-2.60;77.95;96755.48;1688954;85;21044;-80
2022/01/21 09:45:52;;;;;;;23.32;9.80;;;;;;;-2.60;77.89;96748.30;1669469;85;20984;-80
2022/01/21 09:48:23;;;;;;;;;;;;;;;-2.58;78.04;96750.30;1688988;85;21024;-80
2022/01/21 09:50:50;;;;;;;22.30;10.23;;;;;;;-2.52;77.99;96745.64;1679742;85;20186;-80
2022/01/21 09:53:18;;;;;;;19.85;9.48;;;;;;;-2.50;77.95;96737.91;1688187;85;21470;-80
2022/01/21 09:55:44;;;;;;;16.40;7.67;;;;;;;-2.50;78.05;96742.55;1688820;85;21040;-80
2022/01/21 09:58:10;;;;;;;9.43;6.83;;;;;;;-2.49;77.92;96732.73;1669414;85;21110;-80
2022/01/21 10:00:35;;;;;;;20.92;8.38;;;;;;;-2.42;77.95;96737.82;1688832;85;21024;-80
2022/01/21 10:03:03;;;;;;;21.95;9.38;;;;;;;-2.38;77.96;96745.27;1689067;85;21473;-80
2022/01/21 10:05:30;;;;;;;30.65;15.98;;;;;;;-2.30;77.88;96743.88;1688724;85;20953;-79
2022/01/21 10:07:56;;;;;;;28.38;13.93;;;;;;;-2.27;77.55;96736.07;1688844;85;21462;-80
2022/01/21 10:10:21;;;;;;;18.15;9.55;;;;;;;-2.22;77.70;96737.05;1669687;84;20979;-80
2022/01/21 10:12:49;;;;;;;74.20;25.62;;;;;;;-2.24;77.39;96732.06;1688586;85;21052;-80
2022/01/21 10:15:16;;;;;;;28.87;12.43;;;;;;;-2.28;77.55;96743.34;1688805;85;21056;-80
2022/01/21 10:18:04;;;;;;;28.87;14.33;;;;;;;-2.30;77.67;96732.41;1689127;85;21060;-80
2022/01/21 10:20:29;;;;;;;16.67;9.58;;;;;;;-2.28;77.98;96737.41;1688159;85;22033;-80
2022/01/21 10:22:59;;;;;;;16.80;7.83;;;;;;;-2.17;77.98;96736.30;1688910;85;20960;-80
2022/01/21 10:25:25;;;;;;;15.18;7.47;;;;;;;-2.18;77.76;96732.13;1688300;85;21098;-80
2022/01/21 10:27:50;;;;;;;23.62;12.98;;;;;;;-2.17;77.86;96731.22;1688949;85;21023;-80
2022/01/21 10:30:23;;;;;;;25.50;15.58;;;;;;;-2.20;78.06;96737.31;1686859;85;21106;-80
2022/01/21 10:32:49;;;;;;;15.00;8.85;;;;;;;-2.24;78.07;96740.97;1686090;85;21039;-80
2022/01/21 10:35:26;;;;;;;21.30;13.10;;;;;;;-2.25;78.29;96730.43;1686644;85;20972;-80
2022/01/21 10:37:55;;;;;;;19.85;11.68;;;;;;;-2.27;78.36;96734.80;1686544;85;21486;-79
2022/01/21 10:40:21;;;;;;;18.20;10.82;;;;;;;-2.28;78.51;96729.77;1686601;85;21386;-79
2022/01/21 10:42:48;;;;;;;18.07;12.10;;;;;;;-2.28;78.55;96722.98;1665055;85;20986;-79
2022/01/21 10:45:13;;;;;;;33.33;15.43;;;;;;;-2.25;78.85;96714.34;1677344;85;20984;-79
2022/01/21 10:47:48;;;;;;;15.93;10.15;;;;;;;-2.20;78.87;96705.50;1686720;85;21486;-79
2022/01/21 10:50:22;;;;;;;17.80;11.15;;;;;;;-2.09;78.90;96709.11;1663804;83;20977;-79
2022/01/21 10:52:52;;;;;;;20.35;11.48;;;;;;;-2.03;78.85;96696.80;1675398;86;21027;-80
2022/01/21 10:55:42;;;;;;;20.60;12.43;;;;;;;-1.93;79.13;96688.95;1683145;85;21370;-79
2022/01/21 10:58:16;;;;;;;17.02;9.73;;;;;;;-1.86;78.97;96694.00;1670241;85;21020;-79
2022/01/21 11:01:03;;;;;;;17.05;11.50;;;;;;;-1.89;78.74;96697.20;1641248;86;21029;-79
2022/01/21 11:03:30;;;;;;;12.43;8.28;;;;;;;-1.85;78.79;96694.36;1665424;85;21012;-80
2022/01/21 11:06:14;;;;;;;16.95;10.98;;;;;;;-1.86;78.57;96688.91;1665288;86;21554;-80
2022/01/21 11:08:40;;;;;;;16.23;9.60;;;;;;;-1.81;78.65;96692.42;1620584;87;21099;-79
2022/01/21 11:11:06;;;;;;;15.68;9.30;;;;;;;-1.73;78.75;96687.67;1638050;88;21036;-79
2022/01/21 11:13:36;;;;;;;17.05;9.03;;;;;;;-1.72;78.31;96687.21;1638305;88;21455;-80
2022/01/21 11:16:12;;;;;;;19.57;9.78;;;;;;;-1.72;78.35;96689.30;1638304;88;21060;-80
2022/01/21 11:19:13;;;;;;;21.30;10.75;;;;;;;-1.69;78.06;96685.28;1638285;87;21095;-79
2022/01/21 11:21:44;;;;;;;19.25;11.25;;;;;;;-1.71;78.05;96674.38;1618151;88;21450;-80
2022/01/21 11:24:10;;;;;;;23.00;10.68;;;;;;;-1.71;77.74;96673.56;1638547;87;21015;-80
2022/01/21 11:26:36;;;;;;;16.48;9.03;;;;;;;-1.76;77.58;96675.59;1638390;88;21446;-80
2022/01/21 11:29:03;;;;;;;14.30;8.23;;;;;;;-1.70;77.70;96671.37;1634816;87;21132;-80
2022/01/21 11:31:30;;;;;;;15.25;9.65;;;;;;;-1.72;77.61;96675.29;1637514;88;21076;-81
2022/01/21 11:33:55;;;;;;;13.65;7.87;;;;;;;-1.83;77.12;96673.88;1630672;87;21035;-80
2022/01/21 11:36:21;;;;;;;17.55;9.08;;;;;;;-1.81;77.14;96670.31;1665135;86;21530;-79
2022/01/21 11:38:48;;;;;;;16.67;9.35;;;;;;;-1.79;77.19;96674.49;1665120;86;21142;-80
2022/01/21 11:41:14;;;;;;;11.73;7.60;;;;;;;-1.76;76.74;96669.23;1654978;86;21416;-80
2022/01/21 11:43:50;;;;;;;17.37;9.55;;;;;;;-1.73;76.59;96674.94;1665035;86;21015;-80
2022/01/21 11:48:57;;;;;;;18.87;9.78;;;;;;;-1.54;76.33;96674.55;1662112;85;21470;-79
2022/01/21 11:51:34;;;;;;;20.60;9.90;;;;;;;-1.51;75.74;96674.34;1654064;86;20999;-80
2022/01/21 11:54:08;;;;;;;19.27;10.48;;;;;;;-1.48;75.61;96681.78;1663280;85;21044;-80
2022/01/21 11:56:57;;;;;;;17.77;9.00;;;;;;;-1.49;74.85;96683.98;1665083;86;21056;-80
2022/01/21 11:59:40;;;;;;;11.68;5.28;;;;;;;-1.53;74.78;96682.55;1655116;87;21100;-80
2022/01/21 12:02:21;;;;;;;14.03;6.90;;;;;;;-1.56;73.01;96676.39;1608184;89;21449;-80
2022/01/21 12:05:08;;;;;;;13.83;7.55;;;;;;;-1.57;74.18;96674.76;1665065;86;21094;-79
2022/01/21 12:07:48;;;;;;;11.88;6.47;;;;;;;-1.52;73.18;96670.17;1665300;86;21008;-80
2022/01/21 12:10:29;;;;;;;20.00;9.03;;;;;;;-1.53;71.78;96676.19;1644107;86;21132;-79
2022/01/21 12:15:45;;;;;;;14.85;7.53;;;;;;;-1.36;73.26;96663.14;1665265;86;21025;-79
2022/01/21 12:20:45;;;;;;;11.18;6.70;;;;;;;-1.38;70.08;96663.70;1665724;86;21540;-80
2022/01/21 12:23:14;;;;;;;9.38;5.03;;;;;;;-1.45;71.47;96659.95;1665405;85;21024;-79
2022/01/21 12:26:16;;;;;;;9.75;5.83;;;;;;;-1.51;70.06;96662.42;1664984;86;20976;-80
2022/01/21 12:28:56;;;;;;;11.48;6.15;;;;;;;-1.62;70.73;96662.33;1654881;86;20972;-80